Time;durP1;ratioP1;P1;durP2;ratioP2;P2;SDS_P1;SDS_P2;PMS_P1;PMS_P2;Temp;Humidity;BMP_temperature;BMP_pressure;BME280_temperature;BME280_humidity;BME280_pressure;Samples;Min_cycle;Max_cycle;Signal;HPM_P1;HPM_P2
2023/02/03 00:00:41;;;;;;;58.17;3.10;;;;;;;;;;5073358;28;20450;-70
2023/02/03 00:03:08;;;;;;;58.17;3.30;;;;;;;;;;5073900;28;20235;-70
2023/02/03 00:05:36;;;;;;;57.10;2.97;;;;;;;;;;5073691;28;20940;-70
2023/02/03 00:08:03;;;;;;;56.90;3.03;;;;;;;;;;5073531;28;20450;-69
2023/02/03 00:10:30;;;;;;;57.37;3.37;;;;;;;;;;5073062;28;20454;-70
2023/02/03 00:12:57;;;;;;;59.23;3.30;;;;;;;;;;5073671;28;20453;-70
2023/02/03 00:15:26;;;;;;;59.17;3.13;;;;;;;;;;5073504;28;20466;-69
2023/02/03 00:17:53;;;;;;;58.10;3.30;;;;;;;;;;5074354;28;20505;-70
2023/02/03 00:20:21;;;;;;;58.50;3.70;;;;;;;;;;5072971;28;20447;-68
2023/02/03 00:22:48;;;;;;;60.93;3.30;;;;;;;;;;5073131;28;20490;-70
2023/02/03 00:25:15;;;;;;;61.57;3.20;;;;;;;;;;5073577;28;20455;-70
2023/02/03 00:27:42;;;;;;;61.63;3.70;;;;;;;;;;5073818;28;20448;-70
2023/02/03 00:30:10;;;;;;;61.53;3.00;;;;;;;;;;5073098;28;20816;-69
2023/02/03 00:32:38;;;;;;;58.55;3.00;;;;;;;;;;5073584;28;20197;-69
2023/02/03 00:35:06;;;;;;;57.90;3.13;;;;;;;;;;5073706;28;20226;-69
2023/02/03 00:37:33;;;;;;;57.93;3.27;;;;;;;;;;5073574;28;20458;-69
2023/02/03 00:40:00;;;;;;;58.97;3.13;;;;;;;;;;5072858;28;20462;-70
2023/02/03 00:42:27;;;;;;;57.95;3.05;;;;;;;;;;5073874;28;20497;-69
2023/02/03 00:44:54;;;;;;;57.90;3.00;;;;;;;;;;5073382;28;20225;-70
2023/02/03 00:47:21;;;;;;;57.67;3.30;;;;;;;;;;5073245;28;20454;-69
2023/02/03 00:49:50;;;;;;;58.73;3.10;;;;;;;;;;5072459;28;20447;-70
2023/02/03 00:52:17;;;;;;;57.27;3.00;;;;;;;;;;5072307;28;20963;-70
2023/02/03 00:54:44;;;;;;;57.97;3.37;;;;;;;;;;5073761;28;20490;-70
2023/02/03 00:57:11;;;;;;;57.83;3.00;;;;;;;;;;5073510;28;20444;-70
2023/02/03 00:59:38;;;;;;;58.07;2.73;;;;;;;;;;5071921;28;20822;-70
2023/02/03 01:02:05;;;;;;;57.90;2.90;;;;;;;;;;5072845;28;20479;-70
2023/02/03 01:04:32;;;;;;;59.00;3.37;;;;;;;;;;5073013;28;20511;-70
2023/02/03 01:07:01;;;;;;;57.60;2.53;;;;;;;;;;5073018;28;20455;-70
2023/02/03 01:09:28;;;;;;;57.80;3.00;;;;;;;;;;5072293;28;20956;-70
2023/02/03 01:11:55;;;;;;;58.53;2.90;;;;;;;;;;5072941;28;20448;-70
2023/02/03 01:14:22;;;;;;;57.30;2.90;;;;;;;;;;5073050;28;20471;-69
2023/02/03 01:16:49;;;;;;;57.50;3.00;;;;;;;;;;5073292;28;20462;-70
2023/02/03 01:19:16;;;;;;;57.67;3.22;;;;;;;;;;5072106;28;20474;-69
2023/02/03 01:21:44;;;;;;;57.10;2.83;;;;;;;;;;5072046;28;20205;-69
2023/02/03 01:24:13;;;;;;;59.27;3.67;;;;;;;;;;5072505;28;20491;-70
2023/02/03 01:26:41;;;;;;;58.73;3.30;;;;;;;;;;5072876;28;20935;-69
2023/02/03 01:29:08;;;;;;;58.53;3.10;;;;;;;;;;5071906;28;20455;-70
2023/02/03 01:31:38;;;;;;;57.07;2.50;;;;;;;;;;5073170;28;20205;-70
2023/02/03 01:34:06;;;;;;;57.57;3.03;;;;;;;;;;5072740;28;20467;-70
2023/02/03 01:36:34;;;;;;;59.07;2.83;;;;;;;;;;5072161;28;20444;-70
2023/02/03 01:39:01;;;;;;;58.80;3.10;;;;;;;;;;5071264;28;20447;-69
2023/02/03 01:41:31;;;;;;;60.55;2.90;;;;;;;;;;5072362;28;20984;-70
2023/02/03 01:43:59;;;;;;;58.10;2.90;;;;;;;;;;5072604;28;20601;-70
2023/02/03 01:46:28;;;;;;;57.07;2.80;;;;;;;;;;5072485;28;20443;-70
2023/02/03 01:48:58;;;;;;;59.50;3.10;;;;;;;;;;5071388;28;20947;-70
2023/02/03 01:51:25;;;;;;;57.23;3.03;;;;;;;;;;5071689;28;20458;-70
2023/02/03 01:53:54;;;;;;;58.13;3.40;;;;;;;;;;5072196;28;20463;-70
2023/02/03 01:56:22;;;;;;;57.75;3.10;;;;;;;;;;5072156;28;20209;-70
2023/02/03 01:58:51;;;;;;;58.03;3.08;;;;;;;;;;5071612;28;20216;-69
2023/02/03 02:01:18;;;;;;;58.17;3.00;;;;;;;;;;5072221;28;20304;-70
2023/02/03 02:03:49;;;;;;;57.40;2.70;;;;;;;;;;5071196;28;20245;-69
2023/02/03 02:06:16;;;;;;;57.72;2.60;;;;;;;;;;5071556;28;20453;-70
2023/02/03 02:08:48;;;;;;;57.47;2.90;;;;;;;;;;5071155;28;20212;-70
2023/02/03 02:11:15;;;;;;;58.87;3.10;;;;;;;;;;5072625;28;20451;-70
2023/02/03 02:13:44;;;;;;;56.80;2.80;;;;;;;;;;5072103;28;20470;-70
2023/02/03 02:16:16;;;;;;;58.23;2.70;;;;;;;;;;5072331;28;20456;-69
2023/02/03 02:18:58;;;;;;;57.63;2.90;;;;;;;;;;5071244;28;20447;-69
2023/02/03 02:21:47;;;;;;;57.80;3.53;;;;;;;;;;5072006;28;20452;-69
2023/02/03 02:24:41;;;;;;;60.00;3.07;;;;;;;;;;5071712;28;20491;-69
2023/02/03 02:27:11;;;;;;;58.60;3.30;;;;;;;;;;5071364;28;20447;-70
2023/02/03 02:30:07;;;;;;;60.83;2.90;;;;;;;;;;5071202;28;20447;-69
2023/02/03 02:32:41;;;;;;;57.57;3.00;;;;;;;;;;5072196;28;20946;-70
2023/02/03 02:35:12;;;;;;;57.60;2.60;;;;;;;;;;5071420;28;20467;-70
2023/02/03 02:37:45;;;;;;;57.60;2.70;;;;;;;;;;5071639;28;20232;-70
2023/02/03 02:40:16;;;;;;;57.80;3.30;;;;;;;;;;5071183;28;20447;-70
2023/02/03 02:42:47;;;;;;;57.47;2.90;;;;;;;;;;5071641;28;20479;-70
2023/02/03 02:45:17;;;;;;;58.40;3.30;;;;;;;;;;5067787;28;20448;-70
2023/02/03 02:47:45;;;;;;;56.63;2.87;;;;;;;;;;5071843;28;20216;-70
2023/02/03 02:50:17;;;;;;;57.60;3.07;;;;;;;;;;5070984;28;20477;-70
2023/02/03 02:52:45;;;;;;;56.97;3.03;;;;;;;;;;5071758;28;20451;-70
2023/02/03 02:55:15;;;;;;;58.00;3.30;;;;;;;;;;5071553;28;20451;-70
2023/02/03 02:57:43;;;;;;;58.53;3.20;;;;;;;;;;5071569;28;20453;-70
2023/02/03 03:00:12;;;;;;;58.10;3.20;;;;;;;;;;5071117;28;20207;-70
2023/02/03 03:02:40;;;;;;;59.13;2.97;;;;;;;;;;5071795;28;20562;-70
2023/02/03 03:05:10;;;;;;;58.67;3.33;;;;;;;;;;5071498;28;20479;-70
2023/02/03 03:07:41;;;;;;;59.53;3.00;;;;;;;;;;5071487;28;20449;-69
2023/02/03 03:10:10;;;;;;;57.73;3.20;;;;;;;;;;5070615;28;20461;-70
2023/02/03 03:12:39;;;;;;;58.67;3.50;;;;;;;;;;5071867;28;20509;-70
2023/02/03 03:15:08;;;;;;;58.23;3.47;;;;;;;;;;5073040;28;20466;-70
2023/02/03 03:17:38;;;;;;;59.50;4.83;;;;;;;;;;5075369;28;20447;-70
2023/02/03 03:20:06;;;;;;;59.13;3.40;;;;;;;;;;5074575;28;20822;-70
2023/02/03 03:22:37;;;;;;;58.47;3.23;;;;;;;;;;5075170;28;20451;-69
2023/02/03 03:25:07;;;;;;;58.30;3.57;;;;;;;;;;5075034;28;21026;-70
2023/02/03 03:27:36;;;;;;;57.53;3.13;;;;;;;;;;5075405;28;20447;-70
2023/02/03 03:30:05;;;;;;;58.87;3.20;;;;;;;;;;5074509;28;20456;-70
2023/02/03 03:32:33;;;;;;;58.60;3.33;;;;;;;;;;5075155;28;20455;-70
2023/02/03 03:35:01;;;;;;;57.90;3.23;;;;;;;;;;5074963;28;20473;-69
2023/02/03 03:37:31;;;;;;;60.30;3.77;;;;;;;;;;5074826;28;20447;-69
2023/02/03 03:40:01;;;;;;;58.67;3.27;;;;;;;;;;5074418;28;20793;-70
2023/02/03 03:42:30;;;;;;;58.17;3.43;;;;;;;;;;5074938;28;20458;-70
2023/02/03 03:44:59;;;;;;;57.20;3.27;;;;;;;;;;5074647;28;20979;-70
2023/02/03 03:47:31;;;;;;;58.17;3.13;;;;;;;;;;5074798;28;20447;-70
2023/02/03 03:49:59;;;;;;;58.03;2.90;;;;;;;;;;5073870;28;20447;-69
2023/02/03 03:52:28;;;;;;;59.20;3.47;;;;;;;;;;5074635;28;20451;-69
2023/02/03 03:54:56;;;;;;;57.20;3.00;;;;;;;;;;5074735;28;20489;-70
2023/02/03 03:57:26;;;;;;;58.20;4.00;;;;;;;;;;5074690;28;20955;-70
2023/02/03 03:59:54;;;;;;;59.30;3.00;;;;;;;;;;5073723;28;20448;-70
2023/02/03 04:02:21;;;;;;;57.80;2.97;;;;;;;;;;5074357;28;20447;-70
2023/02/03 04:04:49;;;;;;;57.50;3.08;;;;;;;;;;5074431;28;20502;-69
2023/02/03 04:07:16;;;;;;;57.27;3.00;;;;;;;;;;5074653;28;20577;-70
2023/02/03 04:09:43;;;;;;;57.50;3.30;;;;;;;;;;5073917;28;20443;-70
2023/02/03 04:12:15;;;;;;;57.50;2.80;;;;;;;;;;5074267;28;20447;-70
2023/02/03 04:14:43;;;;;;;60.80;3.17;;;;;;;;;;5074418;28;20467;-70
2023/02/03 04:17:10;;;;;;;58.00;2.87;;;;;;;;;;5074083;28;20463;-70
2023/02/03 04:19:37;;;;;;;59.97;2.70;;;;;;;;;;5073684;28;20465;-70
2023/02/03 04:22:04;;;;;;;58.20;3.20;;;;;;;;;;5074379;28;20463;-71
2023/02/03 04:24:32;;;;;;;58.10;2.67;;;;;;;;;;5073908;28;21006;-70
2023/02/03 04:26:59;;;;;;;57.60;2.83;;;;;;;;;;5073186;28;20453;-71
2023/02/03 04:29:26;;;;;;;59.03;3.33;;;;;;;;;;5073213;28;20466;-70
2023/02/03 04:31:54;;;;;;;57.67;2.57;;;;;;;;;;5074151;28;20447;-70
2023/02/03 04:34:21;;;;;;;57.30;2.77;;;;;;;;;;5073960;28;20836;-70
2023/02/03 04:36:48;;;;;;;57.00;2.70;;;;;;;;;;5073821;28;20454;-70
2023/02/03 04:39:16;;;;;;;57.80;2.67;;;;;;;;;;5073115;28;20447;-69
2023/02/03 04:41:43;;;;;;;57.10;2.70;;;;;;;;;;5073897;28;20959;-70
2023/02/03 04:44:10;;;;;;;57.63;2.60;;;;;;;;;;5073688;28;20487;-70
2023/02/03 04:46:37;;;;;;;58.40;2.73;;;;;;;;;;5073626;28;20458;-70
2023/02/03 04:49:05;;;;;;;57.87;2.77;;;;;;;;;;5073008;28;20825;-69
2023/02/03 04:51:32;;;;;;;57.58;2.70;;;;;;;;;;5073645;28;20452;-69
2023/02/03 04:54:00;;;;;;;58.90;2.70;;;;;;;;;;5073463;28;20728;-69
2023/02/03 04:56:27;;;;;;;57.30;2.80;;;;;;;;;;5073450;28;20443;-69
2023/02/03 04:58:54;;;;;;;56.87;2.77;;;;;;;;;;5072692;28;20682;-70
2023/02/03 05:01:21;;;;;;;57.60;2.60;;;;;;;;;;5073546;28;20457;-70
2023/02/03 05:03:48;;;;;;;58.08;3.15;;;;;;;;;;5073340;28;20490;-68
2023/02/03 05:06:16;;;;;;;57.57;3.10;;;;;;;;;;5073394;28;20205;-69
2023/02/03 05:08:43;;;;;;;61.83;3.33;;;;;;;;;;5072569;28;20450;-69
2023/02/03 05:11:10;;;;;;;57.47;2.90;;;;;;;;;;5073080;28;20451;-70
2023/02/03 05:13:37;;;;;;;57.80;3.27;;;;;;;;;;5073285;28;20463;-69
2023/02/03 05:16:05;;;;;;;57.67;2.92;;;;;;;;;;5073046;28;20447;-70
2023/02/03 05:18:32;;;;;;;58.90;2.90;;;;;;;;;;5072674;28;20211;-69
2023/02/03 05:20:59;;;;;;;57.07;2.70;;;;;;;;;;5073259;28;20211;-70
2023/02/03 05:23:27;;;;;;;58.10;2.93;;;;;;;;;;5072662;28;20475;-69
2023/02/03 05:25:55;;;;;;;58.67;3.30;;;;;;;;;;5072908;28;20455;-68
2023/02/03 05:28:22;;;;;;;57.80;3.22;;;;;;;;;;5072925;28;20202;-69
2023/02/03 05:30:49;;;;;;;58.10;3.13;;;;;;;;;;5072126;28;20700;-68
2023/02/03 05:33:16;;;;;;;57.65;3.33;;;;;;;;;;5072841;28;20474;-69
2023/02/03 05:35:43;;;;;;;58.50;3.30;;;;;;;;;;5072974;28;20211;-68
2023/02/03 05:38:10;;;;;;;58.95;3.25;;;;;;;;;;5072460;28;20495;-69
2023/02/03 05:43:23;;;;;;;57.40;3.00;;;;;;;;;;5072510;28;20216;-69
2023/02/03 05:45:50;;;;;;;57.60;3.30;;;;;;;;;;5072445;28;20453;-70
2023/02/03 05:48:17;;;;;;;58.17;3.30;;;;;;;;;;5072383;28;20209;-70
2023/02/03 05:50:45;;;;;;;61.23;3.10;;;;;;;;;;5071435;28;20444;-70
2023/02/03 05:53:12;;;;;;;58.28;3.00;;;;;;;;;;5072467;28;20467;-69
2023/02/03 05:55:40;;;;;;;57.22;3.28;;;;;;;;;;5072630;28;20211;-70
2023/02/03 05:58:07;;;;;;;58.97;3.23;;;;;;;;;;5072386;28;20235;-70
2023/02/03 06:00:35;;;;;;;58.17;3.10;;;;;;;;;;5071570;28;20459;-70
2023/02/03 06:03:02;;;;;;;57.63;3.20;;;;;;;;;;5072305;28;20537;-70
2023/02/03 06:05:30;;;;;;;57.85;3.40;;;;;;;;;;5072220;28;20229;-70
2023/02/03 06:07:57;;;;;;;58.17;3.23;;;;;;;;;;5072419;28;20205;-70
2023/02/03 06:10:24;;;;;;;57.60;3.10;;;;;;;;;;5071547;28;20455;-70
2023/02/03 06:12:53;;;;;;;58.13;3.33;;;;;;;;;;5072242;28;20455;-70
2023/02/03 06:15:20;;;;;;;63.20;3.83;;;;;;;;;;5072186;28;20458;-69
2023/02/03 06:17:48;;;;;;;58.00;3.40;;;;;;;;;;5072104;28;20448;-68
2023/02/03 06:20:16;;;;;;;57.70;3.10;;;;;;;;;;5071391;28;20703;-70
2023/02/03 06:22:44;;;;;;;58.00;3.07;;;;;;;;;;5072069;28;20443;-70
2023/02/03 06:25:13;;;;;;;59.57;3.23;;;;;;;;;;5071625;28;20845;-70
2023/02/03 06:27:40;;;;;;;62.57;3.90;;;;;;;;;;5072152;28;20513;-70
2023/02/03 06:30:10;;;;;;;59.67;3.87;;;;;;;;;;5071058;28;20542;-71
2023/02/03 06:32:37;;;;;;;58.53;3.40;;;;;;;;;;5071831;28;20944;-70
2023/02/03 06:35:04;;;;;;;62.10;3.57;;;;;;;;;;5071865;28;20466;-70
2023/02/03 06:37:31;;;;;;;58.40;3.40;;;;;;;;;;5071710;28;20447;-70
2023/02/03 06:39:58;;;;;;;60.60;3.90;;;;;;;;;;5071205;28;20447;-70
2023/02/03 06:42:25;;;;;;;60.17;3.63;;;;;;;;;;5071760;28;20820;-70
2023/02/03 06:44:53;;;;;;;58.40;3.43;;;;;;;;;;5071367;28;20479;-71
2023/02/03 06:47:22;;;;;;;58.90;4.00;;;;;;;;;;5071898;28;20747;-70
2023/02/03 06:49:50;;;;;;;58.50;3.43;;;;;;;;;;5070267;28;20456;-70
2023/02/03 06:52:17;;;;;;;58.47;3.47;;;;;;;;;;5071723;28;20822;-69
2023/02/03 06:54:44;;;;;;;58.60;3.83;;;;;;;;;;5071685;28;20466;-70
2023/02/03 06:57:11;;;;;;;62.23;4.87;;;;;;;;;;5071485;28;20455;-69
2023/02/03 06:59:38;;;;;;;59.10;3.88;;;;;;;;;;5070666;28;20454;-69
2023/02/03 07:02:06;;;;;;;57.90;3.50;;;;;;;;;;5071787;28;20212;-70
2023/02/03 07:04:34;;;;;;;59.27;3.67;;;;;;;;;;5071334;28;20490;-70
2023/02/03 07:07:01;;;;;;;60.42;4.07;;;;;;;;;;5071550;28;20447;-68
2023/02/03 07:09:28;;;;;;;57.88;3.10;;;;;;;;;;5070709;28;20677;-70
2023/02/03 07:11:55;;;;;;;58.28;3.60;;;;;;;;;;5071349;28;20208;-68
2023/02/03 07:14:22;;;;;;;60.57;3.60;;;;;;;;;;5071468;28;20217;-70
2023/02/03 07:16:50;;;;;;;58.10;3.50;;;;;;;;;;5071361;28;20447;-69
2023/02/03 07:19:17;;;;;;;59.00;3.70;;;;;;;;;;5070700;28;20451;-70
2023/02/03 07:21:45;;;;;;;57.20;3.22;;;;;;;;;;5071393;28;20205;-69
2023/02/03 07:24:12;;;;;;;58.40;3.50;;;;;;;;;;5071129;28;20602;-70
2023/02/03 07:26:39;;;;;;;57.97;3.80;;;;;;;;;;5071203;28;20212;-70
2023/02/03 07:29:06;;;;;;;58.47;3.38;;;;;;;;;;5070672;28;20448;-70
2023/02/03 07:31:34;;;;;;;57.88;3.78;;;;;;;;;;5071468;28;20202;-70
2023/02/03 07:34:01;;;;;;;60.17;3.33;;;;;;;;;;5071144;28;20271;-70
2023/02/03 07:36:28;;;;;;;58.00;3.33;;;;;;;;;;5071133;28;20209;-70
2023/02/03 07:38:57;;;;;;;58.50;3.10;;;;;;;;;;5070301;28;20932;-70
2023/02/03 07:41:24;;;;;;;58.10;3.43;;;;;;;;;;5071364;28;20451;-70
2023/02/03 07:43:51;;;;;;;59.47;3.53;;;;;;;;;;5071076;28;20487;-70
2023/02/03 07:46:18;;;;;;;58.63;3.47;;;;;;;;;;5071292;28;20443;-70
2023/02/03 07:48:45;;;;;;;57.75;3.10;;;;;;;;;;5070362;28;20459;-70
2023/02/03 07:51:12;;;;;;;61.50;3.60;;;;;;;;;;5070905;28;20202;-69
2023/02/03 07:53:39;;;;;;;58.10;3.60;;;;;;;;;;5070865;28;20228;-70
2023/02/03 07:56:08;;;;;;;58.80;3.23;;;;;;;;;;5070133;28;20447;-69
2023/02/03 07:58:35;;;;;;;58.53;3.50;;;;;;;;;;5070319;28;20450;-70
2023/02/03 08:01:02;;;;;;;58.20;3.60;;;;;;;;;;5071078;28;20454;-71
2023/02/03 08:03:29;;;;;;;59.97;3.57;;;;;;;;;;5074340;28;20520;-70
2023/02/03 08:05:56;;;;;;;58.00;3.60;;;;;;;;;;5074485;28;20478;-71
2023/02/03 08:08:23;;;;;;;58.63;3.35;;;;;;;;;;5074231;28;20447;-70
2023/02/03 08:10:50;;;;;;;57.90;3.47;;;;;;;;;;5073862;28;20216;-70
2023/02/03 08:13:19;;;;;;;57.47;3.70;;;;;;;;;;5068628;28;20471;-70
2023/02/03 08:15:46;;;;;;;60.17;3.80;;;;;;;;;;5073591;28;20208;-69
2023/02/03 08:18:13;;;;;;;58.40;3.80;;;;;;;;;;5073528;28;20448;-70
2023/02/03 08:20:40;;;;;;;59.73;3.63;;;;;;;;;;5073055;28;20901;-69
2023/02/03 08:23:07;;;;;;;60.47;3.70;;;;;;;;;;5073835;28;20995;-69
2023/02/03 08:25:35;;;;;;;61.93;3.63;;;;;;;;;;5074090;28;20487;-69
2023/02/03 08:28:02;;;;;;;58.27;4.03;;;;;;;;;;5074100;28;20443;-69
2023/02/03 08:30:30;;;;;;;60.63;3.60;;;;;;;;;;5073633;28;20451;-69
2023/02/03 08:32:58;;;;;;;59.00;3.90;;;;;;;;;;5074395;28;20205;-69
2023/02/03 08:35:25;;;;;;;57.77;3.37;;;;;;;;;;5073848;28;20448;-69
2023/02/03 08:37:52;;;;;;;58.33;3.55;;;;;;;;;;5073798;28;20451;-69
2023/02/03 08:40:19;;;;;;;58.63;4.38;;;;;;;;;;5073222;28;20201;-69
2023/02/03 08:42:46;;;;;;;62.65;3.92;;;;;;;;;;5073976;28;20227;-69
2023/02/03 08:45:14;;;;;;;59.27;3.70;;;;;;;;;;5073819;28;20235;-69
2023/02/03 08:47:42;;;;;;;59.47;3.50;;;;;;;;;;5073722;28;20819;-68
2023/02/03 08:50:10;;;;;;;61.07;4.10;;;;;;;;;;5072803;28;20447;-69
2023/02/03 08:52:37;;;;;;;58.47;4.00;;;;;;;;;;5073775;28;20470;-69
2023/02/03 08:55:04;;;;;;;59.38;3.80;;;;;;;;;;5073619;28;20470;-67
2023/02/03 08:57:32;;;;;;;60.03;3.70;;;;;;;;;;5073645;28;20201;-69
2023/02/03 08:59:59;;;;;;;58.70;3.97;;;;;;;;;;5072925;28;20243;-70
2023/02/03 09:02:27;;;;;;;60.53;3.80;;;;;;;;;;5073316;28;20448;-68
2023/02/03 09:04:55;;;;;;;58.47;3.67;;;;;;;;;;5073452;28;20229;-69
2023/02/03 09:07:22;;;;;;;61.90;4.68;;;;;;;;;;5073403;28;20451;-70
2023/02/03 09:09:49;;;;;;;58.57;4.00;;;;;;;;;;5072800;28;20211;-70
2023/02/03 09:12:17;;;;;;;57.83;3.67;;;;;;;;;;5072774;28;20448;-70
2023/02/03 09:14:44;;;;;;;60.60;5.33;;;;;;;;;;5072997;28;20463;-70
2023/02/03 09:17:11;;;;;;;57.87;3.60;;;;;;;;;;5073339;28;20444;-70
2023/02/03 09:19:38;;;;;;;57.40;3.57;;;;;;;;;;5072437;28;20923;-70
2023/02/03 09:22:07;;;;;;;58.20;3.90;;;;;;;;;;5073123;28;20454;-70
2023/02/03 09:24:34;;;;;;;58.57;4.00;;;;;;;;;;5072803;28;20485;-70
2023/02/03 09:27:01;;;;;;;58.30;3.60;;;;;;;;;;5072946;28;20474;-70
2023/02/03 09:29:28;;;;;;;60.23;4.20;;;;;;;;;;5072021;28;20537;-70
2023/02/03 09:31:55;;;;;;;59.60;3.80;;;;;;;;;;5072969;28;20448;-69
2023/02/03 09:34:22;;;;;;;58.60;4.10;;;;;;;;;;5072465;28;20970;-70
2023/02/03 09:36:50;;;;;;;58.40;3.40;;;;;;;;;;5072808;28;20446;-70
2023/02/03 09:39:18;;;;;;;57.80;3.70;;;;;;;;;;5071873;28;20501;-70
2023/02/03 09:41:59;;;;;;;59.47;3.63;;;;;;;;;;5072814;28;20454;-70
2023/02/03 09:44:29;;;;;;;62.77;3.97;;;;;;;;;;5072565;28;20479;-69
2023/02/03 09:46:59;;;;;;;64.03;3.80;;;;;;;;;;5072839;28;20455;-70
2023/02/03 09:49:28;;;;;;;58.77;3.57;;;;;;;;;;5071810;28;20451;-69
2023/02/03 09:51:59;;;;;;;57.83;3.50;;;;;;;;;;5072591;28;20454;-70
2023/02/03 09:54:42;;;;;;;58.27;3.23;;;;;;;;;;5072165;28;20987;-69
2023/02/03 09:57:14;;;;;;;57.60;3.30;;;;;;;;;;5072375;28;20856;-69
2023/02/03 09:59:41;;;;;;;60.43;4.27;;;;;;;;;;5071663;28;20459;-70
2023/02/03 10:02:24;;;;;;;59.00;3.00;;;;;;;;;;5072349;28;20852;-68
2023/02/03 10:04:54;;;;;;;58.87;3.00;;;;;;;;;;5071998;28;20483;-69
2023/02/03 10:07:24;;;;;;;59.30;3.30;;;;;;;;;;5072106;28;20454;-69
2023/02/03 10:10:01;;;;;;;59.30;2.87;;;;;;;;;;5071699;28;20454;-69
2023/02/03 10:12:36;;;;;;;60.57;3.37;;;;;;;;;;5072086;28;20538;-69
2023/02/03 10:15:12;;;;;;;57.80;2.87;;;;;;;;;;5072056;28;20835;-69
2023/02/03 10:17:40;;;;;;;58.40;3.50;;;;;;;;;;5071942;28;20447;-69
2023/02/03 10:20:12;;;;;;;57.63;2.90;;;;;;;;;;5071473;28;20458;-69
2023/02/03 10:22:43;;;;;;;57.97;2.80;;;;;;;;;;5071920;28;20447;-69
2023/02/03 10:25:17;;;;;;;58.30;3.20;;;;;;;;;;5070960;28;20498;-69
2023/02/03 10:27:44;;;;;;;57.80;2.77;;;;;;;;;;5071815;28;20962;-69
2023/02/03 10:30:18;;;;;;;58.83;3.50;;;;;;;;;;5071117;28;20452;-68
2023/02/03 10:32:45;;;;;;;58.10;3.20;;;;;;;;;;5072021;28;20451;-69
2023/02/03 10:35:12;;;;;;;59.70;2.90;;;;;;;;;;5071924;28;20872;-69
2023/02/03 10:37:43;;;;;;;57.50;2.60;;;;;;;;;;5071734;28;20444;-69
2023/02/03 10:40:12;;;;;;;57.87;3.20;;;;;;;;;;5071056;28;20461;-69
2023/02/03 10:45:27;;;;;;;58.30;3.27;;;;;;;;;;5053820;28;20506;-69
2023/02/03 10:47:56;;;;;;;58.60;2.77;;;;;;;;;;5071583;28;20924;-69
2023/02/03 10:50:30;;;;;;;58.73;3.10;;;;;;;;;;5071039;28;20523;-69
2023/02/03 10:53:18;;;;;;;58.27;3.30;;;;;;;;;;5071473;28;20573;-69
2023/02/03 10:55:45;;;;;;;58.00;3.43;;;;;;;;;;5071735;28;20443;-69
2023/02/03 10:58:16;;;;;;;60.00;3.40;;;;;;;;;;5071582;28;20451;-68
2023/02/03 11:00:44;;;;;;;57.70;2.97;;;;;;;;;;5070965;28;20451;-69
2023/02/03 11:03:21;;;;;;;57.67;2.80;;;;;;;;;;5071342;28;20493;-69
2023/02/03 11:05:48;;;;;;;58.30;3.17;;;;;;;;;;5071689;28;20483;-68
2023/02/03 11:08:15;;;;;;;58.07;3.27;;;;;;;;;;5071603;28;20454;-68
2023/02/03 11:10:42;;;;;;;58.47;3.20;;;;;;;;;;5070766;28;20956;-68
2023/02/03 11:13:18;;;;;;;60.20;3.30;;;;;;;;;;5071793;28;20983;-68
2023/02/03 11:15:46;;;;;;;57.97;2.73;;;;;;;;;;5071385;28;20445;-68
2023/02/03 11:18:32;;;;;;;58.07;3.40;;;;;;;;;;5071737;28;20451;-69
2023/02/03 11:20:59;;;;;;;60.80;3.23;;;;;;;;;;5071647;28;20443;-69
2023/02/03 11:23:27;;;;;;;57.97;2.63;;;;;;;;;;5071136;28;20467;-68
2023/02/03 11:25:54;;;;;;;57.77;2.87;;;;;;;;;;5071268;28;20505;-69
2023/02/03 11:28:22;;;;;;;57.70;3.20;;;;;;;;;;5071745;28;20447;-69
2023/02/03 11:30:55;;;;;;;57.67;2.80;;;;;;;;;;5070757;28;20936;-69
2023/02/03 11:33:24;;;;;;;59.03;2.73;;;;;;;;;;5071512;28;20486;-68
2023/02/03 11:35:56;;;;;;;57.80;2.90;;;;;;;;;;5072437;28;20811;-68
2023/02/03 11:38:30;;;;;;;57.00;2.70;;;;;;;;;;5074894;28;20450;-68
2023/02/03 11:41:00;;;;;;;61.60;2.70;;;;;;;;;;5074564;28;20438;-68
2023/02/03 11:43:29;;;;;;;57.47;3.00;;;;;;;;;;5075001;28;20245;-67
2023/02/03 11:46:00;;;;;;;59.40;2.60;;;;;;;;;;5074885;28;20490;-68
2023/02/03 11:48:29;;;;;;;57.87;2.33;;;;;;;;;;5074826;28;20457;-67
2023/02/03 11:51:01;;;;;;;57.13;2.60;;;;;;;;;;5074600;28;20640;-68
2023/02/03 11:53:31;;;;;;;58.07;2.47;;;;;;;;;;5074623;28;20463;-68
2023/02/03 11:56:13;;;;;;;58.00;2.60;;;;;;;;;;5074701;28;20445;-68
2023/02/03 11:58:59;;;;;;;57.07;2.30;;;;;;;;;;5071757;28;20473;-68
2023/02/03 12:01:40;;;;;;;56.10;2.23;;;;;;;;;;5074718;28;20446;-67
2023/02/03 12:04:27;;;;;;;57.20;2.50;;;;;;;;;;5074758;28;20463;-68
2023/02/03 12:07:05;;;;;;;56.47;2.40;;;;;;;;;;5074584;28;20857;-68
2023/02/03 12:09:40;;;;;;;56.80;2.40;;;;;;;;;;5073681;28;20974;-68
2023/02/03 12:12:19;;;;;;;57.40;2.63;;;;;;;;;;5074423;28;20447;-68
2023/02/03 12:14:50;;;;;;;57.50;2.57;;;;;;;;;;5074482;28;20471;-68
2023/02/03 12:17:35;;;;;;;57.00;2.20;;;;;;;;;;5074295;28;20455;-68
2023/02/03 12:20:07;;;;;;;57.20;2.67;;;;;;;;;;5073266;28;20487;-67
2023/02/03 12:22:38;;;;;;;57.00;2.30;;;;;;;;;;5074068;28;20458;-67
2023/02/03 12:25:10;;;;;;;57.47;2.50;;;;;;;;;;5074288;28;20486;-68
2023/02/03 12:27:42;;;;;;;60.97;2.80;;;;;;;;;;5074167;28;20506;-67
2023/02/03 12:30:12;;;;;;;57.27;2.47;;;;;;;;;;5073424;28;20447;-67
2023/02/03 12:32:42;;;;;;;57.20;2.40;;;;;;;;;;5073988;28;20498;-68
2023/02/03 12:35:16;;;;;;;57.20;2.20;;;;;;;;;;5073939;28;20475;-68
2023/02/03 12:37:46;;;;;;;58.00;2.30;;;;;;;;;;5073934;28;20462;-68
2023/02/03 12:40:17;;;;;;;57.07;2.67;;;;;;;;;;5073167;28;20456;-68
2023/02/03 12:42:47;;;;;;;57.97;2.60;;;;;;;;;;5073929;28;20447;-68
2023/02/03 12:45:19;;;;;;;57.20;2.57;;;;;;;;;;5073803;28;20461;-68
2023/02/03 12:47:47;;;;;;;56.97;2.50;;;;;;;;;;5072990;28;20436;-68
2023/02/03 12:50:17;;;;;;;57.77;2.80;;;;;;;;;;5072807;28;20451;-67
2023/02/03 12:52:46;;;;;;;57.77;2.57;;;;;;;;;;5073739;28;20474;-68
2023/02/03 12:55:19;;;;;;;57.60;2.40;;;;;;;;;;5073517;28;20479;-67
2023/02/03 12:57:53;;;;;;;57.13;2.30;;;;;;;;;;5073474;28;20451;-68
2023/02/03 13:00:26;;;;;;;57.47;2.63;;;;;;;;;;5072911;28;20455;-68
2023/02/03 13:03:01;;;;;;;57.60;2.70;;;;;;;;;;5073480;28;20505;-68
2023/02/03 13:05:33;;;;;;;57.10;2.70;;;;;;;;;;5073388;28;20457;-67
2023/02/03 13:08:06;;;;;;;57.00;2.50;;;;;;;;;;5073366;28;20458;-68
2023/02/03 13:10:37;;;;;;;57.20;2.60;;;;;;;;;;5072534;28;20458;-68
2023/02/03 13:13:08;;;;;;;57.27;3.00;;;;;;;;;;5073522;28;20451;-67
2023/02/03 13:15:38;;;;;;;57.17;2.33;;;;;;;;;;5073353;28;20822;-68
2023/02/03 13:18:09;;;;;;;57.07;2.47;;;;;;;;;;5073133;28;20451;-67
2023/02/03 13:20:38;;;;;;;57.50;2.60;;;;;;;;;;5072330;28;20454;-68
2023/02/03 13:23:06;;;;;;;58.83;3.10;;;;;;;;;;5072871;28;20940;-68
2023/02/03 13:25:39;;;;;;;57.10;2.50;;;;;;;;;;5072738;28;20820;-67
2023/02/03 13:28:12;;;;;;;57.43;2.70;;;;;;;;;;5073025;28;20451;-67
2023/02/03 13:30:57;;;;;;;58.17;2.27;;;;;;;;;;5072265;28;20470;-68
2023/02/03 13:33:42;;;;;;;57.00;2.60;;;;;;;;;;5072445;28;20471;-68
2023/02/03 13:36:21;;;;;;;57.20;2.43;;;;;;;;;;5072714;28;20963;-67
2023/02/03 13:39:00;;;;;;;57.17;2.43;;;;;;;;;;5072090;28;20443;-67
2023/02/03 13:41:32;;;;;;;57.47;2.53;;;;;;;;;;5072703;28;20443;-68
2023/02/03 13:43:59;;;;;;;57.60;2.30;;;;;;;;;;5072842;28;20467;-68
2023/02/03 13:46:28;;;;;;;57.40;2.83;;;;;;;;;;5072639;28;20483;-68
2023/02/03 13:48:57;;;;;;;58.77;3.03;;;;;;;;;;5071768;28;20457;-68
2023/02/03 13:51:32;;;;;;;56.37;2.60;;;;;;;;;;5072457;28;20443;-68
2023/02/03 13:54:01;;;;;;;58.80;2.47;;;;;;;;;;5072607;28;20501;-68
2023/02/03 13:56:29;;;;;;;57.57;2.53;;;;;;;;;;5072612;28;20877;-67
2023/02/03 13:58:59;;;;;;;57.00;2.60;;;;;;;;;;5071690;28;20456;-68
2023/02/03 14:01:28;;;;;;;57.60;2.50;;;;;;;;;;5072403;28;20823;-67
2023/02/03 14:03:56;;;;;;;59.40;2.50;;;;;;;;;;5072155;28;20470;-68
2023/02/03 14:06:59;;;;;;;57.13;2.73;;;;;;;;;;5072321;28;20479;-67
2023/02/03 14:09:46;;;;;;;56.90;2.70;;;;;;;;;;5071566;28;20442;-68
2023/02/03 14:12:13;;;;;;;57.50;2.60;;;;;;;;;;5072231;28;20455;-67
2023/02/03 14:15:03;;;;;;;58.60;2.57;;;;;;;;;;5072102;28;20459;-68
2023/02/03 14:17:54;;;;;;;56.83;2.60;;;;;;;;;;5072291;28;20447;-68
2023/02/03 14:20:51;;;;;;;58.10;2.60;;;;;;;;;;5056027;28;20458;-68
2023/02/03 14:23:21;;;;;;;57.47;2.83;;;;;;;;;;5071672;28;20478;-68
2023/02/03 14:25:51;;;;;;;57.30;2.50;;;;;;;;;;5072229;28;20827;-68
2023/02/03 14:28:21;;;;;;;58.00;2.53;;;;;;;;;;5071975;28;20527;-67
2023/02/03 14:31:09;;;;;;;57.90;2.60;;;;;;;;;;5071114;28;20958;-67
2023/02/03 14:34:00;;;;;;;56.47;2.50;;;;;;;;;;5071612;28;20846;-67
2023/02/03 14:36:35;;;;;;;58.90;2.70;;;;;;;;;;5056849;28;20463;-67
2023/02/03 14:39:04;;;;;;;60.10;2.40;;;;;;;;;;5071129;28;20454;-67
2023/02/03 14:41:40;;;;;;;59.00;2.50;;;;;;;;;;5071731;28;20955;-67
2023/02/03 14:44:11;;;;;;;56.90;2.50;;;;;;;;;;5071531;28;20463;-67
2023/02/03 14:46:50;;;;;;;58.53;2.80;;;;;;;;;;5071827;28;20509;-67
2023/02/03 14:49:26;;;;;;;58.07;2.83;;;;;;;;;;5070966;28;20931;-67
2023/02/03 14:52:01;;;;;;;57.70;2.40;;;;;;;;;;5071746;28;20962;-67